Time;durP1;ratioP1;P1;durP2;ratioP2;P2;SDS_P1;SDS_P2;PMS_P1;PMS_P2;Temp;Humidity;BMP_temperature;BMP_pressure;BME280_temperature;BME280_humidity;BME280_pressure;Samples;Min_cycle;Max_cycle;Signal;HPM_P1;HPM_P2
2023/09/05 00:01:54;;;;;;;6.85;2.60;;;;;;;17.61;65.46;93367.09;2054097;70;20142;-78
2023/09/05 00:04:20;;;;;;;6.30;3.30;;;;;;;17.68;64.90;93368.09;2051263;70;20153;-77
2023/09/05 00:06:46;;;;;;;8.25;2.72;;;;;;;17.67;64.54;93375.91;2054710;70;20150;-78
2023/09/05 00:09:14;;;;;;;5.13;2.83;;;;;;;17.69;64.50;93373.19;2054528;70;20146;-81
2023/09/05 00:11:41;;;;;;;8.65;2.80;;;;;;;17.62;64.80;93371.41;2051339;70;20154;-79
2023/09/05 00:14:09;;;;;;;6.53;2.90;;;;;;;17.61;64.90;93369.22;2049991;70;20217;-81
2023/09/05 00:16:35;;;;;;;6.00;2.70;;;;;;;17.58;64.59;93367.66;2047758;70;20190;-80
2023/09/05 00:19:00;;;;;;;8.00;2.72;;;;;;;17.44;65.08;93365.63;2044348;70;20574;-79
2023/09/05 00:21:26;;;;;;;7.57;3.10;;;;;;;17.45;64.54;93363.50;2048022;70;20725;-78
2023/09/05 00:23:52;;;;;;;5.18;2.90;;;;;;;17.44;64.98;93359.94;2047940;70;20154;-79
2023/09/05 00:26:17;;;;;;;8.43;3.20;;;;;;;17.31;64.95;93351.47;2047554;70;20192;-78
2023/09/05 00:28:50;;;;;;;8.00;2.90;;;;;;;17.39;63.50;93358.28;2044397;70;20188;-78
2023/09/05 00:31:15;;;;;;;5.97;2.72;;;;;;;17.32;65.32;93353.69;2047600;70;20260;-79
2023/09/05 00:33:42;;;;;;;8.65;2.90;;;;;;;17.34;65.61;93359.47;2044619;70;20146;-81
2023/09/05 00:36:11;;;;;;;7.82;3.20;;;;;;;17.26;64.80;93356.97;2048022;70;20178;-79
2023/09/05 00:38:38;;;;;;;5.68;2.97;;;;;;;17.19;64.84;93345.97;2044381;70;20196;-78
2023/09/05 00:41:05;;;;;;;8.70;2.78;;;;;;;17.22;65.24;93356.06;2044351;70;20234;-79
2023/09/05 00:43:31;;;;;;;4.72;2.67;;;;;;;17.14;65.15;93350.75;2044344;70;20225;-80
2023/09/05 00:45:57;;;;;;;5.28;2.67;;;;;;;17.16;65.42;93350.81;2044636;70;20147;-80
2023/09/05 00:48:27;;;;;;;6.05;2.70;;;;;;;17.18;65.60;93353.78;2044359;70;20143;-80
2023/09/05 00:50:57;;;;;;;7.40;2.50;;;;;;;17.06;65.97;93358.88;2047590;70;20205;-79
2023/09/05 00:53:24;;;;;;;5.20;2.60;;;;;;;17.08;65.28;93350.44;2047497;70;20222;-79
2023/09/05 00:55:52;;;;;;;4.47;2.90;;;;;;;16.94;66.04;93341.97;2044077;70;20182;-79
2023/09/05 00:58:20;;;;;;;4.18;2.67;;;;;;;17.08;65.72;93358.22;2047304;70;20153;-79
2023/09/05 01:00:45;;;;;;;5.88;2.60;;;;;;;17.07;65.30;93351.81;2044295;70;20270;-80
2023/09/05 01:03:12;;;;;;;7.70;2.80;;;;;;;16.82;66.03;93349.19;2044189;70;20157;-78
2023/09/05 01:05:45;;;;;;;4.65;3.10;;;;;;;17.00;65.38;93355.75;2041714;70;20213;-78
2023/09/05 01:08:31;;;;;;;5.20;2.70;;;;;;;16.98;65.91;93355.66;2044565;70;20182;-78
2023/09/05 01:11:00;;;;;;;11.13;3.08;;;;;;;16.89;65.38;93348.09;2047719;70;20154;-78
2023/09/05 01:13:27;;;;;;;7.30;2.80;;;;;;;16.84;65.25;93349.28;2047655;70;20166;-78
2023/09/05 01:15:56;;;;;;;9.07;2.78;;;;;;;16.82;66.07;93354.88;2043722;70;20238;-79
2023/09/05 01:18:23;;;;;;;5.43;2.85;;;;;;;16.86;65.72;93358.66;2044755;70;20173;-79
2023/09/05 01:21:04;;;;;;;4.18;2.90;;;;;;;16.86;66.38;93361.50;2047762;70;20153;-78
2023/09/05 01:23:38;;;;;;;11.13;3.35;;;;;;;16.79;65.93;93354.03;2047528;70;20138;-78
2023/09/05 01:26:05;;;;;;;5.80;2.50;;;;;;;16.76;65.89;93358.16;2047708;70;20282;-78
2023/09/05 01:28:41;;;;;;;6.30;2.80;;;;;;;16.77;66.14;93357.53;2047936;70;20181;-80
2023/09/05 01:31:10;;;;;;;8.85;2.75;;;;;;;16.76;66.66;93363.84;2044503;70;20159;-79
2023/09/05 01:33:39;;;;;;;5.80;3.00;;;;;;;16.69;66.39;93368.47;2044192;70;20194;-79
2023/09/05 01:36:08;;;;;;;5.57;3.03;;;;;;;16.68;66.68;93361.34;2047627;70;20146;-79
2023/09/05 01:38:35;;;;;;;7.82;3.40;;;;;;;16.59;66.70;93358.72;2044022;70;20155;-79
2023/09/05 01:41:01;;;;;;;5.22;2.72;;;;;;;16.66;65.55;93355.53;2044411;70;20138;-79
2023/09/05 01:43:26;;;;;;;6.38;2.80;;;;;;;16.57;66.96;93353.66;2047789;70;20193;-80
2023/09/05 01:45:52;;;;;;;6.25;2.90;;;;;;;16.57;66.58;93355.78;2047590;70;20155;-79
2023/09/05 01:48:19;;;;;;;7.20;2.88;;;;;;;16.56;67.20;93355.03;2044289;70;20186;-77
2023/09/05 01:50:45;;;;;;;4.90;2.50;;;;;;;16.59;66.89;93353.78;2047529;70;20143;-78
2023/09/05 01:53:10;;;;;;;5.65;2.85;;;;;;;16.63;65.87;93356.06;2044650;70;20242;-78
2023/09/05 01:55:36;;;;;;;5.07;2.65;;;;;;;16.59;66.31;93362.31;2047392;70;20639;-78
2023/09/05 01:58:03;;;;;;;7.05;3.03;;;;;;;16.55;65.72;93356.41;2044492;70;20154;-78
2023/09/05 02:00:29;;;;;;;5.35;3.05;;;;;;;16.51;66.06;93351.25;2044528;70;20155;-79
2023/09/05 02:02:54;;;;;;;7.13;2.90;;;;;;;16.49;65.86;93345.50;2047419;70;20504;-78
2023/09/05 02:05:22;;;;;;;6.35;3.00;;;;;;;16.43;66.23;93348.03;2047259;70;20682;-78
2023/09/05 02:07:47;;;;;;;9.23;2.88;;;;;;;16.42;65.85;93349.41;2044012;70;20165;-77
2023/09/05 02:10:14;;;;;;;7.13;3.20;;;;;;;16.37;66.80;93356.25;2047351;70;20173;-78
2023/09/05 02:12:44;;;;;;;7.68;3.05;;;;;;;16.25;67.50;93349.94;2047383;70;20171;-78
2023/09/05 02:15:13;;;;;;;7.43;2.85;;;;;;;16.21;67.36;93341.94;2044404;70;20162;-77
2023/09/05 02:17:40;;;;;;;4.70;2.70;;;;;;;16.25;67.78;93342.16;2044122;70;20142;-78
2023/09/05 02:20:06;;;;;;;9.05;2.92;;;;;;;16.24;67.64;93342.81;2047789;70;20165;-80
2023/09/05 02:22:32;;;;;;;5.25;2.80;;;;;;;16.26;66.86;93331.53;2047507;70;20182;-78
2023/09/05 02:25:02;;;;;;;8.32;2.80;;;;;;;16.09;68.02;93335.69;2047292;70;20587;-77
2023/09/05 02:27:28;;;;;;;4.70;2.72;;;;;;;16.17;67.23;93332.50;2047581;70;20151;-78
2023/09/05 02:29:56;;;;;;;7.75;2.80;;;;;;;16.22;67.03;93334.19;2047589;70;20593;-77
2023/09/05 02:32:24;;;;;;;6.03;2.60;;;;;;;16.14;67.61;93330.94;2044028;70;20255;-77
2023/09/05 02:34:52;;;;;;;6.20;2.85;;;;;;;16.08;67.71;93327.78;2047637;70;20150;-79
2023/09/05 02:37:19;;;;;;;4.93;2.78;;;;;;;15.99;68.07;93335.16;2044239;70;20229;-77
2023/09/05 02:39:46;;;;;;;6.05;2.92;;;;;;;16.04;66.92;93330.44;2047626;70;20257;-78
2023/09/05 02:42:11;;;;;;;8.77;2.90;;;;;;;15.87;67.91;93323.91;2044138;70;20155;-78
2023/09/05 02:44:37;;;;;;;5.03;2.63;;;;;;;15.82;67.56;93330.03;2047844;70;20158;-79
2023/09/05 02:47:03;;;;;;;3.83;2.75;;;;;;;15.97;67.92;93326.53;2044114;70;20147;-77
2023/09/05 02:49:28;;;;;;;4.07;2.83;;;;;;;15.88;67.89;93331.06;2047372;70;20182;-78
2023/09/05 02:51:57;;;;;;;5.60;2.80;;;;;;;15.85;67.59;93328.75;2043951;70;20137;-77
2023/09/05 02:54:23;;;;;;;9.45;2.78;;;;;;;15.83;68.80;93331.50;2041297;70;20146;-78
2023/09/05 02:56:48;;;;;;;7.80;3.10;;;;;;;15.73;68.82;93331.72;2047520;70;20146;-79
2023/09/05 02:59:15;;;;;;;7.32;3.08;;;;;;;15.75;68.45;93328.97;2047137;70;20142;-78
2023/09/05 03:01:41;;;;;;;6.53;3.05;;;;;;;15.78;67.33;93330.53;2041221;70;20185;-77
2023/09/05 03:04:07;;;;;;;8.38;2.90;;;;;;;15.76;67.40;93330.47;2043919;70;20960;-77
2023/09/05 03:06:33;;;;;;;5.68;2.88;;;;;;;15.72;68.50;93330.25;2044117;70;20237;-77
2023/09/05 03:08:59;;;;;;;5.38;2.97;;;;;;;15.72;67.97;93328.13;2047580;70;20185;-79
2023/09/05 03:11:26;;;;;;;4.97;3.00;;;;;;;15.73;67.77;93321.09;2044096;70;20277;-77
2023/09/05 03:13:52;;;;;;;5.60;2.90;;;;;;;15.77;68.19;93336.88;2041740;70;20230;-78
2023/09/05 03:16:18;;;;;;;6.38;2.55;;;;;;;15.79;66.83;93326.34;2047923;70;20147;-79
2023/09/05 03:18:47;;;;;;;4.43;2.58;;;;;;;15.76;67.65;93321.94;2048126;70;20169;-77
2023/09/05 03:21:12;;;;;;;4.82;2.50;;;;;;;15.80;67.38;93318.56;2051321;70;20544;-77
2023/09/05 03:23:38;;;;;;;7.90;2.90;;;;;;;15.79;67.03;93322.75;2051033;70;20193;-77
2023/09/05 03:26:05;;;;;;;8.02;3.25;;;;;;;15.68;67.41;93321.50;2052709;69;20134;-79
2023/09/05 03:28:42;;;;;;;5.40;2.70;;;;;;;15.50;67.74;93319.16;2054462;69;20145;-78
2023/09/05 03:31:11;;;;;;;5.55;3.05;;;;;;;15.54;67.58;93317.91;2054570;69;20217;-77
2023/09/05 03:33:37;;;;;;;4.88;2.90;;;;;;;15.49;67.48;93317.69;2054149;69;20227;-78
2023/09/05 03:36:05;;;;;;;4.63;2.78;;;;;;;15.45;67.82;93317.47;2054279;69;20606;-78
2023/09/05 03:38:33;;;;;;;4.53;2.50;;;;;;;15.43;68.12;93308.84;2057716;69;20174;-77
2023/09/05 03:41:00;;;;;;;3.50;2.40;;;;;;;15.36;68.14;93317.69;2057880;69;20300;-78
2023/09/05 03:43:25;;;;;;;6.40;2.88;;;;;;;15.42;68.00;93318.00;2054523;69;20173;-78
2023/09/05 03:45:51;;;;;;;5.00;2.63;;;;;;;15.37;67.63;93310.63;2057442;69;20320;-79
2023/09/05 03:48:20;;;;;;;5.57;2.95;;;;;;;15.30;68.59;93320.19;2051930;69;20150;-78
2023/09/05 03:50:48;;;;;;;7.35;3.00;;;;;;;15.33;68.47;93328.19;2058043;69;20160;-80
2023/09/05 03:53:18;;;;;;;10.55;2.83;;;;;;;15.27;68.10;93310.84;2058194;69;20216;-76
2023/09/05 03:55:45;;;;;;;5.10;2.58;;;;;;;15.25;68.63;93331.31;2057970;69;20602;-80
2023/09/05 03:58:11;;;;;;;5.32;2.95;;;;;;;15.25;68.41;93316.41;2057863;69;20209;-80
2023/09/05 04:00:37;;;;;;;4.93;2.80;;;;;;;15.25;68.55;93317.13;2057749;69;20180;-80
2023/09/05 04:03:03;;;;;;;4.97;3.03;;;;;;;15.29;68.40;93316.59;2057479;69;20154;-79
2023/09/05 04:05:35;;;;;;;5.85;3.00;;;;;;;15.20;68.80;93311.88;2054555;69;20181;-80
2023/09/05 04:08:01;;;;;;;4.20;2.70;;;;;;;15.26;68.69;93317.88;2054456;69;20224;-79
2023/09/05 04:10:27;;;;;;;7.38;2.67;;;;;;;15.24;68.92;93312.81;2054540;69;20601;-78
2023/09/05 04:12:53;;;;;;;4.68;2.80;;;;;;;15.14;68.96;93320.06;2057796;69;20152;-79
2023/09/05 04:15:23;;;;;;;6.10;2.65;;;;;;;15.13;68.97;93318.59;2054602;69;20142;-78
2023/09/05 04:17:53;;;;;;;7.53;3.13;;;;;;;15.05;69.04;93310.38;2054417;69;20870;-79
2023/09/05 04:20:19;;;;;;;6.57;2.85;;;;;;;15.14;68.37;93320.78;2057888;69;20149;-79
2023/09/05 04:22:45;;;;;;;3.70;2.58;;;;;;;15.07;68.70;93315.41;2058023;69;20581;-78
2023/09/05 04:25:11;;;;;;;5.97;2.65;;;;;;;14.95;69.79;93318.34;2051787;69;20144;-79
2023/09/05 04:27:36;;;;;;;4.55;2.83;;;;;;;15.02;69.08;93327.91;2057898;69;20165;-80
2023/09/05 04:30:03;;;;;;;7.88;2.75;;;;;;;14.97;69.04;93321.28;2054508;69;20133;-78
2023/09/05 04:32:30;;;;;;;4.68;2.35;;;;;;;14.99;69.43;93319.31;2057685;69;20598;-79
2023/09/05 04:35:02;;;;;;;3.70;2.47;;;;;;;15.08;69.03;93328.97;2051730;69;20184;-78
2023/09/05 04:37:29;;;;;;;7.20;2.72;;;;;;;14.97;70.19;93324.84;2054633;69;20153;-78
2023/09/05 04:40:03;;;;;;;5.13;2.57;;;;;;;15.02;69.87;93328.63;2057906;69;20138;-78
2023/09/05 04:42:30;;;;;;;4.32;2.83;;;;;;;14.99;69.71;93327.06;2058010;69;20188;-79
2023/09/05 04:44:56;;;;;;;3.55;2.30;;;;;;;15.02;69.56;93327.91;2054633;69;20567;-78
2023/09/05 04:47:28;;;;;;;7.97;2.95;;;;;;;14.87;70.21;93332.06;2057920;69;20332;-78
2023/09/05 04:49:58;;;;;;;6.95;2.85;;;;;;;14.97;68.91;93336.19;2054669;69;20160;-78
2023/09/05 04:52:28;;;;;;;4.95;2.30;;;;;;;15.00;68.95;93334.22;2058044;69;20172;-78
2023/09/05 04:54:59;;;;;;;3.45;2.50;;;;;;;14.99;69.58;93330.63;2054622;69;20145;-78
2023/09/05 04:57:27;;;;;;;4.03;2.65;;;;;;;15.05;68.34;93344.41;2054778;69;20252;-79
2023/09/05 04:59:59;;;;;;;4.35;2.80;;;;;;;15.09;68.63;93343.91;2054472;69;20228;-80
2023/09/05 05:02:27;;;;;;;6.80;2.80;;;;;;;15.10;68.87;93345.38;2057910;69;20253;-80
2023/09/05 05:04:56;;;;;;;4.45;2.42;;;;;;;15.02;68.65;93350.59;2054714;69;20138;-80
2023/09/05 05:07:21;;;;;;;6.15;2.72;;;;;;;15.02;69.14;93344.91;2054668;69;20146;-79
2023/09/05 05:09:48;;;;;;;4.40;2.75;;;;;;;14.95;69.16;93347.44;2054690;69;20149;-78
2023/09/05 05:12:14;;;;;;;6.10;2.97;;;;;;;14.98;68.77;93351.84;2057902;69;20195;-77
2023/09/05 05:14:39;;;;;;;5.07;2.90;;;;;;;14.88;69.56;93351.28;2054617;69;20239;-78
2023/09/05 05:17:06;;;;;;;5.75;2.80;;;;;;;14.97;69.45;93352.47;2054604;69;20228;-80
2023/09/05 05:19:32;;;;;;;5.82;2.63;;;;;;;14.94;69.20;93351.63;2054646;69;20244;-80
2023/09/05 05:21:58;;;;;;;5.43;2.83;;;;;;;14.88;70.47;93353.38;2058031;69;20161;-78
2023/09/05 05:24:24;;;;;;;4.38;2.88;;;;;;;15.08;69.07;93353.78;2057819;69;20176;-79
2023/09/05 05:26:50;;;;;;;6.47;3.10;;;;;;;15.00;69.09;93346.28;2057733;69;20232;-78
2023/09/05 05:29:16;;;;;;;6.13;2.92;;;;;;;14.99;69.43;93355.44;2057813;69;20678;-77
2023/09/05 05:31:42;;;;;;;5.72;3.15;;;;;;;14.99;69.77;93361.81;2055084;69;20149;-75
2023/09/05 05:34:08;;;;;;;6.30;2.95;;;;;;;14.89;70.54;93349.94;2058043;69;20212;-77
2023/09/05 05:36:34;;;;;;;4.75;2.80;;;;;;;15.00;69.58;93360.47;2057810;69;20153;-79
2023/09/05 05:39:00;;;;;;;5.63;2.85;;;;;;;15.03;69.07;93363.41;2057833;69;20592;-79
2023/09/05 05:41:27;;;;;;;7.78;3.10;;;;;;;14.92;70.00;93362.09;2057789;69;20201;-79
2023/09/05 05:43:53;;;;;;;5.50;3.15;;;;;;;14.88;69.76;93368.28;2054501;69;20212;-79
2023/09/05 05:46:19;;;;;;;4.35;3.45;;;;;;;14.83;69.01;93363.03;2057616;69;20616;-77
2023/09/05 05:48:45;;;;;;;5.35;3.13;;;;;;;14.95;69.13;93375.78;2057800;69;20157;-77
2023/09/05 05:51:12;;;;;;;7.53;3.15;;;;;;;14.90;69.36;93376.19;2057759;69;20136;-78
2023/09/05 05:53:37;;;;;;;7.53;3.40;;;;;;;14.88;69.80;93376.78;2054527;69;20165;-78
2023/09/05 05:56:03;;;;;;;8.25;3.60;;;;;;;14.98;69.79;93377.38;2057731;69;20521;-78
2023/09/05 05:58:29;;;;;;;8.55;3.13;;;;;;;14.97;67.48;93378.72;2057885;69;20145;-77
2023/09/05 06:00:55;;;;;;;11.75;3.47;;;;;;;14.91;69.24;93380.47;2057982;69;20245;-78
2023/09/05 06:03:21;;;;;;;6.13;3.50;;;;;;;14.96;68.33;93377.25;2057938;69;20160;-76
2023/09/05 06:05:49;;;;;;;8.98;3.10;;;;;;;14.98;69.89;93371.69;2057970;69;20142;-79
2023/09/05 06:08:15;;;;;;;4.85;3.17;;;;;;;14.97;68.91;93375.16;2058055;69;20203;-77
2023/09/05 06:10:40;;;;;;;7.18;3.00;;;;;;;14.90;70.20;93371.25;2058004;69;20173;-77
2023/09/05 06:13:06;;;;;;;6.88;3.65;;;;;;;14.83;69.86;93368.69;2057996;69;20168;-79
2023/09/05 06:15:33;;;;;;;9.20;3.42;;;;;;;14.88;70.21;93364.72;2058154;69;20145;-78
2023/09/05 06:18:01;;;;;;;7.68;3.80;;;;;;;14.94;69.33;93365.06;2052010;69;20176;-78
2023/09/05 06:20:28;;;;;;;8.27;3.53;;;;;;;14.99;69.38;93363.94;2058079;69;20609;-77
2023/09/05 06:22:56;;;;;;;6.40;3.60;;;;;;;14.86;69.98;93356.84;2058179;69;20227;-80
2023/09/05 06:25:23;;;;;;;7.70;3.80;;;;;;;14.97;70.05;93358.88;2058072;69;20608;-81
2023/09/05 06:27:49;;;;;;;7.15;3.33;;;;;;;15.01;70.34;93358.34;2058131;69;20137;-83
2023/09/05 06:30:14;;;;;;;8.13;3.25;;;;;;;15.04;70.25;93362.78;2058142;69;20234;-82
2023/09/05 06:32:42;;;;;;;5.40;3.13;;;;;;;15.05;69.92;93355.00;2058131;69;20498;-78
2023/09/05 06:35:11;;;;;;;4.38;2.78;;;;;;;15.01;70.04;93361.19;2054864;69;20228;-81
2023/09/05 06:37:38;;;;;;;5.82;2.47;;;;;;;15.08;70.49;93368.69;2055052;69;20177;-80
2023/09/05 06:40:14;;;;;;;4.22;3.03;;;;;;;15.03;70.96;93369.81;2054774;69;20146;-81
2023/09/05 06:42:40;;;;;;;9.38;3.60;;;;;;;15.06;70.50;93371.41;2058064;69;20184;-80
2023/09/05 06:45:07;;;;;;;5.35;3.00;;;;;;;15.12;70.07;93366.06;2055161;69;20188;-80
2023/09/05 06:47:33;;;;;;;5.50;2.92;;;;;;;15.21;70.08;93372.91;2058089;69;20145;-78
2023/09/05 06:49:59;;;;;;;4.85;3.00;;;;;;;15.53;70.93;93365.38;2058234;69;20233;-81
2023/09/05 06:52:25;;;;;;;4.22;2.95;;;;;;;15.86;70.93;93367.88;2058143;69;20157;-81
2023/09/05 06:54:51;;;;;;;6.00;3.10;;;;;;;16.23;68.79;93361.22;2058314;69;20618;-80
2023/09/05 06:57:18;;;;;;;5.20;2.40;;;;;;;16.45;68.42;93356.66;2054855;69;20126;-79
2023/09/05 06:59:45;;;;;;;3.95;2.03;;;;;;;16.93;67.24;93354.72;2054853;69;20530;-80
2023/09/05 07:02:10;;;;;;;3.70;2.25;;;;;;;17.20;67.15;93353.13;2057896;69;20214;-82
2023/09/05 07:04:39;;;;;;;3.25;1.80;;;;;;;17.49;66.28;93349.47;2054778;69;20649;-78
2023/09/05 07:07:04;;;;;;;3.88;1.95;;;;;;;17.77;64.19;93350.75;2058127;69;20157;-79
2023/09/05 07:09:30;;;;;;;3.78;2.25;;;;;;;17.41;63.61;93349.09;2058110;69;20157;-80
2023/09/05 07:12:00;;;;;;;3.15;2.20;;;;;;;17.37;62.82;93348.94;2058172;69;20134;-78
2023/09/05 07:14:26;;;;;;;3.80;2.53;;;;;;;17.69;60.67;93341.84;2058146;69;20768;-80
2023/09/05 07:16:52;;;;;;;5.07;2.30;;;;;;;17.86;60.73;93337.63;2054779;69;20150;-84
2023/09/05 07:19:19;;;;;;;6.38;2.75;;;;;;;17.97;61.21;93336.69;2058358;69;20146;-80
2023/09/05 07:21:45;;;;;;;4.32;2.08;;;;;;;18.24;61.07;93338.56;2058514;69;20594;-82
2023/09/05 07:24:13;;;;;;;3.67;2.58;;;;;;;18.69;59.75;93342.56;2058559;69;20229;-80
2023/09/05 07:26:39;;;;;;;4.13;2.47;;;;;;;18.84;58.52;93338.91;2058596;69;20165;-83
2023/09/05 07:29:12;;;;;;;3.55;2.35;;;;;;;18.73;59.00;93342.72;2055486;69;20138;-81
2023/09/05 07:31:41;;;;;;;;;;;;;;;19.17;56.96;93337.34;2058743;69;20602;-79
2023/09/05 07:34:08;;;;;;;3.92;2.10;;;;;;;19.58;56.87;93331.06;2057786;69;20077;-80
2023/09/05 07:36:36;;;;;;;6.68;2.20;;;;;;;19.91;56.29;93338.00;2058609;69;20154;-80
2023/09/05 07:39:04;;;;;;;5.38;1.90;;;;;;;20.37;56.20;93330.34;2058507;69;20175;-81
2023/09/05 07:41:38;;;;;;;3.13;2.00;;;;;;;20.68;56.48;93326.41;2058670;69;20248;-81
2023/09/05 07:44:05;;;;;;;3.60;2.20;;;;;;;19.90;52.61;93330.81;2055319;69;20525;-80
2023/09/05 07:46:31;;;;;;;4.47;2.25;;;;;;;20.42;52.02;93331.19;2055160;69;20181;-82
2023/09/05 07:48:56;;;;;;;4.05;2.05;;;;;;;20.62;52.01;93325.44;2058580;69;20243;-83
2023/09/05 07:51:23;;;;;;;4.97;2.40;;;;;;;20.53;51.46;93325.19;2055370;69;20244;-80
2023/09/05 07:54:03;;;;;;;3.67;2.05;;;;;;;21.17;52.58;93327.97;2058629;69;20150;-81
2023/09/05 07:56:29;;;;;;;4.78;2.65;;;;;;;21.35;52.11;93327.84;2058672;69;20150;-80
2023/09/05 07:58:55;;;;;;;4.05;2.20;;;;;;;21.72;49.46;93328.94;2058644;69;20639;-81
2023/09/05 08:01:21;;;;;;;2.60;1.90;;;;;;;21.76;50.26;93329.03;2055182;69;20137;-82
2023/09/05 08:03:49;;;;;;;4.10;2.00;;;;;;;21.97;49.38;93331.09;2058587;69;20145;-80
2023/09/05 08:06:15;;;;;;;5.05;1.90;;;;;;;22.21;48.46;93331.06;2058628;69;20153;-80
2023/09/05 08:08:42;;;;;;;4.13;2.00;;;;;;;22.33;47.64;93325.66;2055309;69;20146;-81
2023/09/05 08:11:07;;;;;;;1.95;1.63;;;;;;;22.53;47.32;93319.00;2058525;69;20157;-80
2023/09/05 08:13:33;;;;;;;3.70;1.70;;;;;;;23.34;46.61;93321.03;2058775;69;20617;-81
2023/09/05 08:15:58;;;;;;;2.38;1.90;;;;;;;23.27;46.52;93318.69;2058659;69;20161;-80
2023/09/05 08:18:25;;;;;;;3.78;1.83;;;;;;;23.74;45.63;93326.25;2058391;69;20165;-82
2023/09/05 08:20:52;;;;;;;2.28;1.90;;;;;;;23.73;46.15;93330.53;2058564;69;20149;-80
2023/09/05 08:23:17;;;;;;;2.25;1.65;;;;;;;24.23;45.81;93320.75;2055485;69;20145;-79
2023/09/05 08:25:51;;;;;;;2.63;1.80;;;;;;;24.39;44.79;93321.09;2058564;69;20145;-79
2023/09/05 08:28:19;;;;;;;2.63;2.00;;;;;;;24.58;43.78;93327.94;2052473;69;20201;-81
2023/09/05 08:30:45;;;;;;;2.97;2.40;;;;;;;24.16;43.35;93322.06;2058612;69;20138;-81
2023/09/05 08:33:11;;;;;;;3.42;2.30;;;;;;;24.42;42.71;93316.84;2055151;69;20647;-80
2023/09/05 08:35:38;;;;;;;3.63;1.90;;;;;;;24.53;43.90;93309.84;2055013;69;20145;-83
2023/09/05 08:38:05;;;;;;;2.60;1.95;;;;;;;25.22;42.49;93301.69;2058653;69;20153;-81
2023/09/05 08:40:35;;;;;;;2.83;2.10;;;;;;;25.47;41.25;93294.13;2058540;69;20167;-80
2023/09/05 08:43:02;;;;;;;3.65;1.95;;;;;;;25.80;40.20;93309.03;2055707;69;20153;-83
2023/09/05 08:45:30;;;;;;;2.67;2.08;;;;;;;25.66;41.41;93303.78;2055157;70;20229;-84
2023/09/05 08:47:56;;;;;;;3.63;1.92;;;;;;;26.21;40.38;93298.00;2055113;69;20199;-78
2023/09/05 08:50:25;;;;;;;5.75;2.00;;;;;;;26.02;40.30;93294.88;2055227;70;20590;-82
2023/09/05 08:52:53;;;;;;;3.00;2.05;;;;;;;26.41;39.03;93292.47;2055259;70;20146;-84
2023/09/05 08:55:23;;;;;;;2.00;1.80;;;;;;;26.85;39.12;93297.28;2055138;70;20245;-83
2023/09/05 08:57:53;;;;;;;2.00;1.80;;;;;;;27.35;37.83;93287.56;2055168;70;20153;-83
2023/09/05 09:00:21;;;;;;;2.35;1.70;;;;;;;27.58;37.28;93283.41;2055222;69;20150;-84
2023/09/05 09:02:48;;;;;;;3.60;2.15;;;;;;;27.25;38.56;93287.50;2051945;70;20169;-80
2023/09/05 09:05:15;;;;;;;3.90;1.77;;;;;;;27.66;37.94;93287.78;2055415;70;20153;-80
2023/09/05 09:07:42;;;;;;;2.72;2.28;;;;;;;27.54;38.42;93268.94;2052473;70;20510;-84
2023/09/05 09:10:20;;;;;;;3.17;2.10;;;;;;;27.97;36.65;93280.03;2053044;70;20141;-83
2023/09/05 09:12:50;;;;;;;3.78;1.80;;;;;;;27.87;36.24;93277.81;2052624;70;20146;-82
2023/09/05 09:15:16;;;;;;;3.38;2.00;;;;;;;28.18;37.69;93278.66;2055743;69;20138;-81
2023/09/05 09:17:42;;;;;;;3.45;1.83;;;;;;;27.93;37.70;93268.44;2055839;70;20566;-82
2023/09/05 09:20:16;;;;;;;3.10;2.10;;;;;;;28.06;37.28;93253.28;2052874;70;20122;-81
2023/09/05 09:22:42;;;;;;;2.00;1.80;;;;;;;29.20;36.06;93275.28;2052800;70;20154;-82
2023/09/05 09:25:33;;;;;;;2.17;1.73;;;;;;;29.09;35.83;93266.59;2051931;70;20138;-82
2023/09/05 09:27:58;;;;;;;3.35;2.10;;;;;;;28.60;36.80;93260.72;2052737;70;20340;-83
2023/09/05 09:30:27;;;;;;;4.18;2.33;;;;;;;29.38;36.25;93258.59;2055306;70;20190;-82
2023/09/05 09:32:54;;;;;;;4.40;2.30;;;;;;;28.71;35.53;93260.72;2049045;70;20169;-83
2023/09/05 09:35:21;;;;;;;3.05;1.90;;;;;;;29.27;35.69;93260.03;2055314;69;20142;-80
2023/09/05 09:37:49;;;;;;;3.03;2.00;;;;;;;30.26;35.19;93254.78;2051932;70;20285;-81
2023/09/05 09:40:16;;;;;;;7.07;2.05;;;;;;;30.30;35.93;93261.28;2055100;69;20146;-81
2023/09/05 09:42:50;;;;;;;3.50;1.85;;;;;;;30.61;33.34;93253.16;2055057;70;20600;-80
2023/09/05 09:45:19;;;;;;;3.22;2.25;;;;;;;30.74;35.17;93248.00;2049006;70;20176;-81
2023/09/05 09:47:48;;;;;;;2.33;1.80;;;;;;;31.07;33.81;93247.78;2051762;70;20166;-81
2023/09/05 09:50:14;;;;;;;2.03;1.75;;;;;;;32.10;34.48;93251.19;2055050;70;20146;-81
2023/09/05 09:52:44;;;;;;;3.15;1.98;;;;;;;30.71;34.46;93249.47;2055063;69;20138;-82
2023/09/05 09:55:13;;;;;;;3.50;2.28;;;;;;;30.72;34.68;93241.47;2054775;70;20670;-81
2023/09/05 09:58:00;;;;;;;2.63;2.00;;;;;;;30.25;34.58;93238.81;2055106;70;20162;-81
2023/09/05 10:00:32;;;;;;;4.30;2.42;;;;;;;31.80;33.00;93229.66;2054458;70;20630;-81
2023/09/05 10:03:04;;;;;;;3.00;2.20;;;;;;;32.37;31.75;93237.75;2047992;70;20313;-81
2023/09/05 10:05:31;;;;;;;4.82;2.13;;;;;;;32.68;31.24;93237.34;2051275;70;20212;-81
2023/09/05 10:07:58;;;;;;;5.40;1.90;;;;;;;33.06;31.88;93239.00;2051312;70;20170;-81
2023/09/05 10:10:25;;;;;;;4.05;2.10;;;;;;;31.78;32.06;93238.41;2051357;70;20138;-81
2023/09/05 10:12:51;;;;;;;2.40;2.00;;;;;;;33.19;29.82;93238.81;2051449;70;20197;-81
2023/09/05 10:15:20;;;;;;;2.03;1.80;;;;;;;33.61;30.18;93243.94;2051288;70;20154;-81
2023/09/05 10:17:49;;;;;;;2.58;1.65;;;;;;;33.59;28.17;93231.59;2042378;70;20134;-81
2023/09/05 10:20:19;;;;;;;2.53;1.70;;;;;;;34.56;28.86;93237.03;2047903;70;20150;-81
2023/09/05 10:22:46;;;;;;;3.45;1.70;;;;;;;34.42;27.16;93229.28;2045399;70;20237;-81
2023/09/05 10:25:14;;;;;;;4.82;1.77;;;;;;;34.84;28.15;93224.69;2051296;70;20146;-81
2023/09/05 10:27:40;;;;;;;1.67;1.58;;;;;;;34.67;28.11;93220.69;2051305;70;20253;-82
2023/09/05 10:30:27;;;;;;;2.58;1.60;;;;;;;35.72;26.63;93224.81;2051269;70;20682;-81
2023/09/05 10:32:53;;;;;;;3.60;1.80;;;;;;;36.63;25.58;93215.72;2050992;70;20173;-81
2023/09/05 10:35:22;;;;;;;3.30;1.95;;;;;;;37.00;26.18;93220.47;2051227;70;20530;-81
2023/09/05 10:37:59;;;;;;;2.78;2.03;;;;;;;37.84;25.23;93213.31;2048035;70;20159;-82
2023/09/05 10:40:36;;;;;;;1.95;1.80;;;;;;;37.38;25.72;93209.72;2051306;70;20177;-82
2023/09/05 10:43:04;;;;;;;6.18;2.05;;;;;;;38.20;24.46;93212.81;2051438;70;20143;-82
2023/09/05 10:45:35;;;;;;;2.10;1.80;;;;;;;37.74;24.37;93207.78;2051313;70;20161;-81
2023/09/05 10:48:02;;;;;;;2.40;1.98;;;;;;;37.65;23.64;93206.63;2050023;70;20138;-81
2023/09/05 10:50:28;;;;;;;5.07;1.80;;;;;;;38.42;23.72;93205.44;2047940;70;20135;-82
2023/09/05 10:53:12;;;;;;;2.08;1.80;;;;;;;40.14;22.41;93197.78;2051260;70;20170;-82
2023/09/05 10:55:43;;;;;;;5.03;1.70;;;;;;;40.13;22.93;93192.69;2051354;70;20192;-82
2023/09/05 10:58:37;;;;;;;2.05;1.80;;;;;;;39.78;22.51;93184.63;2051527;70;20621;-83
2023/09/05 11:01:31;;;;;;;5.38;1.98;;;;;;;41.42;22.67;93180.84;2049543;70;20602;-81
2023/09/05 11:04:10;;;;;;;4.22;2.00;;;;;;;42.66;21.14;93189.28;2051689;70;20661;-81
2023/09/05 11:06:36;;;;;;;2.40;1.73;;;;;;;42.75;21.34;93177.69;2048504;70;20310;-83
2023/09/05 11:09:04;;;;;;;2.55;1.80;;;;;;;41.20;19.56;93174.50;2048361;70;20212;-83
2023/09/05 11:11:42;;;;;;;1.70;1.58;;;;;;;43.01;19.31;93178.47;2045199;70;20155;-84
2023/09/05 11:14:08;;;;;;;3.53;1.52;;;;;;;41.86;18.54;93166.78;2045989;70;20241;-83
2023/09/05 11:16:49;;;;;;;1.85;1.50;;;;;;;43.85;19.67;93181.09;2051667;70;20147;-83
2023/09/05 11:19:30;;;;;;;1.45;1.35;;;;;;;43.37;19.33;93173.47;2051769;70;20153;-81
2023/09/05 11:22:19;;;;;;;3.43;1.63;;;;;;;42.56;17.77;93160.19;2052813;70;20186;-81
2023/09/05 11:24:50;;;;;;;2.45;1.33;;;;;;;45.61;17.60;93164.25;2054340;70;21078;-81
2023/09/05 11:27:25;;;;;;;3.45;1.40;;;;;;;45.77;17.56;93171.34;2051375;70;20141;-81
2023/09/05 11:29:57;;;;;;;2.65;1.42;;;;;;;46.24;17.85;93171.22;2054363;70;20154;-81
2023/09/05 11:32:32;;;;;;;1.85;1.40;;;;;;;46.75;17.35;93155.75;2054754;69;20165;-81
2023/09/05 11:35:01;;;;;;;1.92;1.60;;;;;;;46.76;17.03;93151.19;2054674;70;20146;-80
2023/09/05 11:37:28;;;;;;;1.40;1.30;;;;;;;48.70;16.84;93161.31;2054864;70;20192;-81
2023/09/05 11:39:54;;;;;;;1.38;1.27;;;;;;;47.28;16.84;93149.66;2051635;70;20236;-80